Loris, SC (29569)

14:18 EDT le 01 octobre 2014 (GMT -0400)
HWY 9 BUS. WEST. | Change Station
CLOSE
Current Station
Stations météorologiques personnelles
Location: Loris, SC
Altitude: 99 ft
Stations météo à proximité

Alt. 99 ft 34.07 °N, 78.91 °W | Updated 2 seconds ago

Ciel dégagé
Ciel dégagé
81.7 ° F
Paraît 85 ° F
N
0.0
Vent Variable Vent de NNE
Gusts 0.0 mph

Aujourd'hui
Haut(e) -- | Bas -- ° F
--% Risque de précip.
Hier
Haut(e) -- | Bas -- ° F
Precip. -- pouce
7:10 AM 6:59 PM
Lune montante, 50% visible
Pression 29.98 pouce
Visibilité 7.0 Miles terrestres
Nuages Ciel dégagé
indice de chaleur 85 ° F
Point de rosée 68 ° F
Humidité 63%
Précipitations 0.00 pouce
Profondeur de la couche neigeuse Non disponible.
UV 8 sur 12
Pollen 5.60 sur 12
Qualité de l'air Non disponible.
Flu Activity Non disponible.
METAR KHYW 011815Z AUTO 04006KT 7SM CLR 27/17 A2998 RMK AO2

More Conditions Fewer Conditions

Pression 29.98 pouce
Visibilité 7.0 Miles terrestres
Nuages Ciel dégagé
indice de chaleur 85 ° F
Point de rosée 68 ° F
Humidité 63%
Précipitations 0.00 pouce
Profondeur de la couche neigeuse Non disponible.
UV 8 sur 12
Pollen 5.60 sur 12
Qualité de l'air Non disponible.
Flu Activity Non disponible.
METAR KHYW 011815Z AUTO 04006KT 7SM CLR 27/17 A2998 RMK AO2

More Conditions Fewer Conditions

10-Day Weather Forecast

Almanac

Astronomie

Oct. 01, 2014 Lever Coucher
Temps réel 07:10 EDT 18:59 EDT
Crépuscule civil 06:45 EDT 19:24 EDT
Crépuscule nautique 06:16 EDT 19:53 EDT
Crépuscule astronomique 05:46 EDT 20:22 EDT
Lune 13:58 EDT Pas de coucher de lune
Durée de lumière visible 12h 39m
Longueur du jour
11h 49m
Tomorrow will be 2m 6s shorter.
Lune montante, 50% of the Moon is Illuminated
Aujourd'hui
Lune montante
Oct 1
Premier quartier
Oct 8
Pleine lune
Oct 15
Dernier quartier
Oct 23
Nouveau

Extrêmes aujourd'hui

State Highs State Lows

Community

WunderPhotos

Upload Photos

1,758,008 Photos téléchargées !

WunderBlogs® & News

By Dr. Jeff Masters
Director of Meteorology, Weather Underground
By Kari Strenfel
Meteorologist, Weather Underground
By Christopher C. Burt
Weather Historian, Weather Underground
October 1, 2014
October 1, 2014
October 1, 2014

Nearby

Épaisseur de neige

Station Depth Altitude
Pas de nouvelles chutes de neige

Activité sismique

Ville Distance Mag. Time & Date
No recent earthquake activity has been reported nearby.
Minimum magnitude displayed is 2.5.

Températures des eaux côtières

Lieu Température
Springmaid Pier, SC 75.9 ° F

Stations météo à proximité